Time;durP1;ratioP1;P1;durP2;ratioP2;P2;SDS_P1;SDS_P2;PMS_P1;PMS_P2;Temp;Humidity;BMP_temperature;BMP_pressure;BME280_temperature;BME280_humidity;BME280_pressure;Samples;Min_cycle;Max_cycle;Signal;HPM_P1;HPM_P2
2023/12/12 00:01:03;;;;;;;;;;;7.00;99.90;;;;;;5110511;27;19923;-75
2023/12/12 00:03:29;;;;;;;;;;;7.10;99.90;;;;;;5119308;27;19927;-75
2023/12/12 00:05:54;;;;;;;;;;;7.10;99.90;;;;;;5114794;27;20030;-75
2023/12/12 00:08:20;;;;;;;;;;;7.00;99.90;;;;;;5104584;27;19930;-75
2023/12/12 00:10:45;;;;;;;;;;;7.00;99.90;;;;;;5131366;27;19934;-76
2023/12/12 00:13:11;;;;;;;;;;;7.00;99.90;;;;;;5132297;27;20449;-76
2023/12/12 00:15:37;;;;;;;;;;;7.00;99.90;;;;;;5111522;27;20426;-75
2023/12/12 00:18:02;;;;;;;;;;;7.00;99.90;;;;;;5108697;27;19938;-75
2023/12/12 00:20:28;;;;;;;;;;;7.00;99.90;;;;;;5110654;27;19967;-76
2023/12/12 00:22:54;;;;;;;;;;;7.00;99.90;;;;;;5118406;27;19923;-76
2023/12/12 00:25:19;;;;;;;;;;;6.90;99.90;;;;;;5099116;27;19971;-75
2023/12/12 00:27:45;;;;;;;;;;;6.90;99.90;;;;;;5109345;27;20713;-75
2023/12/12 00:30:11;;;;;;;;;;;6.90;99.90;;;;;;5103897;27;21599;-76
2023/12/12 00:32:36;;;;;;;;;;;6.90;99.90;;;;;;5115241;27;19929;-75
2023/12/12 00:35:02;;;;;;;;;;;6.80;99.90;;;;;;5101660;27;19923;-75
2023/12/12 00:37:28;;;;;;;;;;;6.80;99.90;;;;;;5109623;27;20340;-74
2023/12/12 00:39:53;;;;;;;;;;;6.80;99.90;;;;;;5104282;27;19923;-75
2023/12/12 00:42:19;;;;;;;;;;;6.70;99.90;;;;;;5111026;27;20022;-75
2023/12/12 00:44:44;;;;;;;;;;;6.70;99.90;;;;;;5078400;27;20020;-75
2023/12/12 00:47:10;;;;;;;;;;;6.60;99.90;;;;;;5130527;27;19927;-75
2023/12/12 00:49:40;;;;;;;;;;;6.60;99.90;;;;;;5119012;27;19919;-75
2023/12/12 00:52:06;;;;;;;;;;;6.50;99.90;;;;;;5095229;27;19927;-75
2023/12/12 00:54:32;;;;;;;;;;;6.50;99.90;;;;;;5117755;27;19966;-75
2023/12/12 00:56:58;;;;;;;;;;;6.50;99.90;;;;;;5099390;27;20462;-75
2023/12/12 00:59:23;;;;;;;;;;;6.40;99.90;;;;;;5112696;27;19928;-76
2023/12/12 01:01:49;;;;;;;;;;;6.40;99.90;;;;;;5098881;27;19930;-76
2023/12/12 01:04:14;;;;;;;;;;;6.30;99.90;;;;;;5105675;27;19971;-75
2023/12/12 01:06:40;;;;;;;;;;;6.30;99.90;;;;;;5118833;27;19923;-75
2023/12/12 01:09:06;;;;;;;;;;;6.20;99.90;;;;;;5105091;27;19934;-76
2023/12/12 01:11:32;;;;;;;;;;;7.30;99.90;;;;;;5103520;27;20642;-75
2023/12/12 01:13:57;;;;;;;;;;;6.50;99.90;;;;;;5113960;27;19983;-74
2023/12/12 01:16:23;;;;;;;;;;;6.10;99.90;;;;;;5123091;27;19923;-76
2023/12/12 01:18:48;;;;;;;;;;;6.10;99.90;;;;;;5114525;27;19967;-76
2023/12/12 01:21:14;;;;;;;;;;;6.00;99.90;;;;;;5104926;27;19971;-75
2023/12/12 01:23:47;;;;;;;;;;;6.00;99.90;;;;;;5112149;27;20009;-76
2023/12/12 01:26:13;;;;;;;;;;;5.90;99.90;;;;;;5116258;27;19980;-76
2023/12/12 01:28:38;;;;;;;;;;;5.90;99.90;;;;;;5110955;27;19923;-75
2023/12/12 01:31:04;;;;;;;;;;;5.80;99.90;;;;;;5106826;27;20045;-76
2023/12/12 01:33:31;;;;;;;;;;;5.80;99.90;;;;;;5103477;27;19980;-75
2023/12/12 01:35:56;;;;;;;;;;;5.70;99.90;;;;;;5116821;27;19976;-76
2023/12/12 01:38:22;;;;;;;;;;;5.70;99.90;;;;;;5100598;27;20181;-75
2023/12/12 01:40:48;;;;;;;;;;;5.60;99.90;;;;;;5113660;27;19927;-76
2023/12/12 01:43:27;;;;;;;;;;;5.60;99.90;;;;;;5115754;27;19923;-75
2023/12/12 01:45:54;;;;;;;;;;;5.50;99.90;;;;;;5119164;27;20275;-76
2023/12/12 01:48:20;;;;;;;;;;;5.50;99.90;;;;;;5118301;27;19934;-75
2023/12/12 01:50:46;;;;;;;;;;;5.50;99.90;;;;;;5116520;27;20260;-75
2023/12/12 01:53:13;;;;;;;;;;;5.40;99.90;;;;;;5109324;27;20078;-76
2023/12/12 01:55:39;;;;;;;;;;;5.40;99.90;;;;;;5108508;27;20382;-75
2023/12/12 01:58:04;;;;;;;;;;;5.40;99.90;;;;;;5087504;27;19934;-76
2023/12/12 02:00:30;;;;;;;;;;;5.30;99.90;;;;;;5106758;27;20297;-75
2023/12/12 02:02:56;;;;;;;;;;;5.30;99.90;;;;;;5107904;27;19927;-75
2023/12/12 02:05:22;;;;;;;;;;;5.30;99.90;;;;;;5112108;27;20051;-74
2023/12/12 02:07:48;;;;;;;;;;;5.30;99.90;;;;;;5106202;27;19931;-76
2023/12/12 02:10:14;;;;;;;;;;;5.30;99.90;;;;;;5106348;27;19954;-75
2023/12/12 02:12:40;;;;;;;;;;;5.20;99.90;;;;;;5112117;27;20453;-75
2023/12/12 02:15:06;;;;;;;;;;;5.20;99.90;;;;;;5108284;27;19926;-75
2023/12/12 02:17:31;;;;;;;;;;;5.20;99.90;;;;;;5098028;27;19923;-75
2023/12/12 02:19:57;;;;;;;;;;;5.20;99.90;;;;;;5094600;27;20006;-76
2023/12/12 02:22:24;;;;;;;;;;;5.10;99.90;;;;;;5092356;27;20408;-75
2023/12/12 02:24:50;;;;;;;;;;;5.10;99.90;;;;;;5106669;27;19923;-75
2023/12/12 02:27:16;;;;;;;;;;;5.10;99.90;;;;;;5097716;27;20004;-75
2023/12/12 02:29:42;;;;;;;;;;;5.00;99.90;;;;;;5105846;27;20874;-75
2023/12/12 02:32:08;;;;;;;;;;;5.00;99.90;;;;;;5096844;27;20006;-76
2023/12/12 02:34:33;;;;;;;;;;;4.90;99.90;;;;;;5097237;27;20625;-75
2023/12/12 02:36:59;;;;;;;;;;;4.90;99.90;;;;;;5097783;27;20006;-75
2023/12/12 02:39:25;;;;;;;;;;;4.90;99.90;;;;;;5091181;27;19931;-76
2023/12/12 02:41:50;;;;;;;;;;;4.90;99.90;;;;;;5105799;27;19970;-75
2023/12/12 02:44:16;;;;;;;;;;;5.00;99.90;;;;;;5112277;27;19959;-75
2023/12/12 02:46:41;;;;;;;;;;;4.90;99.90;;;;;;5094240;27;20373;-75
2023/12/12 02:49:07;;;;;;;;;;;4.90;99.90;;;;;;5107037;27;19964;-75
2023/12/12 02:51:33;;;;;;;;;;;4.90;99.90;;;;;;5098859;27;20033;-75
2023/12/12 02:53:58;;;;;;;;;;;4.80;99.90;;;;;;5108912;27;19928;-75
2023/12/12 02:56:33;;;;;;;;;;;4.90;99.90;;;;;;5096467;27;19948;-76
2023/12/12 02:58:59;;;;;;;;;;;4.80;99.90;;;;;;5105216;27;19927;-76
2023/12/12 03:01:25;;;;;;;;;;;4.90;99.90;;;;;;5072300;27;20238;-75
2023/12/12 03:03:50;;;;;;;;;;;4.80;99.90;;;;;;5106330;27;20301;-75
2023/12/12 03:06:16;;;;;;;;;;;4.70;99.90;;;;;;5097563;27;20358;-75
2023/12/12 03:08:42;;;;;;;;;;;4.60;99.90;;;;;;5110342;27;19959;-75
2023/12/12 03:11:08;;;;;;;;;;;4.60;99.90;;;;;;5100026;27;19924;-76
2023/12/12 03:13:34;;;;;;;;;;;4.50;99.90;;;;;;5112605;27;19923;-75
2023/12/12 03:15:59;;;;;;;;;;;4.50;99.90;;;;;;5100748;27;20474;-76
2023/12/12 03:18:25;;;;;;;;;;;4.40;99.90;;;;;;5106335;27;20094;-76
2023/12/12 03:20:51;;;;;;;;;;;4.40;99.90;;;;;;5105349;27;19919;-75
2023/12/12 03:23:16;;;;;;;;;;;4.30;99.90;;;;;;5107902;27;20371;-75
2023/12/12 03:25:44;;;;;;;;;;;4.30;99.90;;;;;;5081703;27;20142;-75
2023/12/12 03:28:11;;;;;;;;;;;4.20;99.90;;;;;;5110523;27;20656;-76
2023/12/12 03:30:36;;;;;;;;;;;4.20;99.90;;;;;;5107400;27;20362;-76
2023/12/12 03:33:02;;;;;;;;;;;4.20;99.90;;;;;;5099543;27;19959;-76
2023/12/12 03:35:28;;;;;;;;;;;4.10;99.90;;;;;;5109907;27;19931;-75
2023/12/12 03:37:53;;;;;;;;;;;4.10;99.90;;;;;;5125451;27;19978;-75
2023/12/12 03:40:19;;;;;;;;;;;4.20;99.90;;;;;;5093421;27;19918;-76
2023/12/12 03:42:45;;;;;;;;;;;4.00;99.90;;;;;;5105852;27;19955;-75
2023/12/12 03:45:10;;;;;;;;;;;4.00;99.90;;;;;;5105805;27;19989;-75
2023/12/12 03:47:36;;;;;;;;;;;4.00;99.90;;;;;;5092341;27;19934;-76
2023/12/12 03:50:02;;;;;;;;;;;4.00;99.90;;;;;;5099448;27;20000;-75
2023/12/12 03:52:27;;;;;;;;;;;5.60;99.90;;;;;;5107952;27;20018;-76
2023/12/12 03:54:53;;;;;;;;;;;3.90;99.90;;;;;;5127361;27;20049;-75
2023/12/12 03:57:19;;;;;;;;;;;3.90;99.90;;;;;;5125320;27;19927;-75
2023/12/12 03:59:44;;;;;;;;;;;3.90;99.90;;;;;;5108337;27;19934;-75
2023/12/12 04:02:10;;;;;;;;;;;3.90;99.90;;;;;;5098450;27;19931;-76
2023/12/12 04:04:36;;;;;;;;;;;4.00;99.90;;;;;;5097889;27;20373;-75
2023/12/12 04:07:03;;;;;;;;;;;4.00;99.90;;;;;;5108707;27;20432;-75
2023/12/12 04:09:29;;;;;;;;;;;4.00;99.90;;;;;;5094760;27;20022;-75
2023/12/12 04:11:54;;;;;;;;;;;4.10;99.90;;;;;;5103520;27;19931;-75
2023/12/12 04:14:20;;;;;;;;;;;4.10;99.90;;;;;;5107834;27;19976;-75
2023/12/12 04:16:46;;;;;;;;;;;4.10;99.90;;;;;;5088323;27;20038;-75
2023/12/12 04:19:14;;;;;;;;;;;4.10;99.90;;;;;;5126255;27;20404;-75
2023/12/12 04:21:43;;;;;;;;;;;4.20;99.90;;;;;;5089707;27;22300;-76
2023/12/12 04:24:09;;;;;;;;;;;4.20;99.90;;;;;;5113380;27;20006;-76
2023/12/12 04:26:35;;;;;;;;;;;4.20;99.90;;;;;;5096275;27;20009;-75
2023/12/12 04:29:01;;;;;;;;;;;4.20;99.90;;;;;;5110772;27;20449;-74
2023/12/12 04:31:26;;;;;;;;;;;4.20;99.90;;;;;;5106412;27;20240;-76
2023/12/12 04:33:52;;;;;;;;;;;4.20;99.90;;;;;;5109594;27;19927;-76
2023/12/12 04:36:17;;;;;;;;;;;4.30;99.90;;;;;;5095387;27;19926;-76
2023/12/12 04:38:43;;;;;;;;;;;4.30;99.90;;;;;;5097180;27;19984;-75
2023/12/12 04:41:09;;;;;;;;;;;4.30;99.90;;;;;;5101557;27;19976;-76
2023/12/12 04:43:35;;;;;;;;;;;4.30;99.90;;;;;;5098031;27;19931;-76
2023/12/12 04:46:01;;;;;;;;;;;4.40;99.90;;;;;;5094893;27;19923;-75
2023/12/12 04:48:27;;;;;;;;;;;4.40;99.90;;;;;;5100858;27;19979;-74
2023/12/12 04:51:00;;;;;;;;;;;4.50;99.90;;;;;;5107007;27;20421;-75
2023/12/12 04:53:25;;;;;;;;;;;4.50;99.90;;;;;;5095227;27;19977;-76
2023/12/12 04:55:51;;;;;;;;;;;4.50;99.90;;;;;;5087017;27;19931;-76
2023/12/12 04:58:16;;;;;;;;;;;4.70;99.90;;;;;;5102833;27;19950;-76
2023/12/12 05:00:42;;;;;;;;;;;4.90;99.90;;;;;;5095681;27;19963;-76
2023/12/12 05:03:08;;;;;;;;;;;4.50;99.90;;;;;;5110012;27;20652;-76
2023/12/12 05:05:33;;;;;;;;;;;4.50;99.90;;;;;;5101831;27;19919;-76
2023/12/12 05:07:59;;;;;;;;;;;4.60;99.90;;;;;;5110529;27;20027;-76
2023/12/12 05:10:25;;;;;;;;;;;4.60;99.90;;;;;;5099141;27;19942;-77
2023/12/12 05:12:50;;;;;;;;;;;4.60;99.90;;;;;;5103512;27;19927;-76
2023/12/12 05:15:16;;;;;;;;;;;4.60;99.90;;;;;;5113709;27;19937;-76
2023/12/12 05:17:41;;;;;;;;;;;4.70;99.90;;;;;;5096282;27;20742;-75
2023/12/12 05:20:09;;;;;;;;;;;4.70;99.90;;;;;;5093906;27;20016;-77
2023/12/12 05:22:34;;;;;;;;;;;4.70;99.90;;;;;;5098075;27;19963;-76
2023/12/12 05:25:05;;;;;;;;;;;4.70;99.90;;;;;;5130979;27;19962;-76
2023/12/12 05:27:30;;;;;;;;;;;4.70;99.90;;;;;;5084934;27;20503;-76
2023/12/12 05:29:56;;;;;;;;;;;4.80;99.90;;;;;;5107265;27;19975;-76
2023/12/12 05:32:22;;;;;;;;;;;4.80;99.90;;;;;;5084755;27;19927;-76
2023/12/12 05:34:47;;;;;;;;;;;4.90;99.90;;;;;;5115179;27;19928;-75
2023/12/12 05:37:13;;;;;;;;;;;4.90;99.90;;;;;;5109473;27;19927;-76
2023/12/12 05:39:46;;;;;;;;;;;5.00;99.90;;;;;;5114569;27;19980;-75
2023/12/12 05:42:12;;;;;;;;;;;5.00;99.90;;;;;;5115477;27;20048;-76
2023/12/12 05:44:38;;;;;;;;;;;5.00;99.90;;;;;;5100193;27;20025;-76
2023/12/12 05:47:04;;;;;;;;;;;5.10;99.90;;;;;;5101144;27;19931;-75
2023/12/12 05:49:29;;;;;;;;;;;5.10;99.90;;;;;;5107980;27;19938;-77
2023/12/12 05:51:55;;;;;;;;;;;5.10;99.90;;;;;;5109572;27;20014;-75
2023/12/12 05:54:21;;;;;;;;;;;5.10;99.90;;;;;;5097692;27;20006;-76
2023/12/12 05:56:47;;;;;;;;;;;5.10;99.90;;;;;;5098974;27;19933;-74
2023/12/12 05:59:14;;;;;;;;;;;5.10;99.90;;;;;;5106539;27;19934;-76
2023/12/12 06:01:40;;;;;;;;;;;5.10;99.90;;;;;;5112987;27;20010;-76
2023/12/12 06:04:07;;;;;;;;;;;5.10;99.90;;;;;;5110520;27;19974;-76
2023/12/12 06:06:33;;;;;;;;;;;5.10;99.90;;;;;;5109557;27;19972;-75
2023/12/12 06:08:58;;;;;;;;;;;5.10;99.90;;;;;;5105908;27;20512;-75
2023/12/12 06:11:30;;;;;;;;;;;5.10;99.90;;;;;;5118791;27;19970;-75
2023/12/12 06:13:55;;;;;;;;;;;5.10;99.90;;;;;;5105703;27;20002;-75
2023/12/12 06:16:22;;;;;;;;;;;5.10;99.90;;;;;;5110163;27;19923;-76
2023/12/12 06:18:48;;;;;;;;;;;5.10;99.90;;;;;;5114194;27;20390;-77
2023/12/12 06:21:14;;;;;;;;;;;5.10;99.90;;;;;;5099554;27;20494;-76
2023/12/12 06:23:43;;;;;;;;;;;5.10;99.90;;;;;;5111594;27;20465;-76
2023/12/12 06:26:08;;;;;;;;;;;5.20;99.90;;;;;;5091511;27;19931;-76
2023/12/12 06:28:34;;;;;;;;;;;5.20;99.90;;;;;;5097334;27;19927;-76
2023/12/12 06:31:00;;;;;;;;;;;5.20;99.90;;;;;;5110598;27;21594;-76
2023/12/12 06:33:28;;;;;;;;;;;5.30;99.90;;;;;;5093791;27;19992;-76
2023/12/12 06:35:57;;;;;;;;;;;5.30;99.90;;;;;;5081784;27;19931;-76
2023/12/12 06:38:23;;;;;;;;;;;3.70;99.90;;;;;;5094437;27;19923;-76
2023/12/12 06:40:48;;;;;;;;;;;5.40;99.90;;;;;;5107504;27;20405;-76
2023/12/12 06:43:14;;;;;;;;;;;5.40;99.90;;;;;;5108871;27;20590;-76
2023/12/12 06:45:40;;;;;;;;;;;5.40;99.90;;;;;;5109993;27;19927;-77
2023/12/12 06:48:06;;;;;;;;;;;5.50;99.90;;;;;;5091901;27;19962;-76
2023/12/12 06:50:32;;;;;;;;;;;5.40;99.90;;;;;;5105158;27;20010;-76
2023/12/12 06:52:57;;;;;;;;;;;5.50;99.90;;;;;;5111096;27;19927;-76
2023/12/12 06:55:23;;;;;;;;;;;5.50;99.90;;;;;;5094037;27;19931;-76
2023/12/12 06:57:48;;;;;;;;;;;5.50;99.90;;;;;;5085650;27;19928;-76
2023/12/12 07:00:14;;;;;;;;;;;5.60;99.90;;;;;;5106681;27;19931;-77
2023/12/12 07:02:40;;;;;;;;;;;5.60;99.90;;;;;;5116435;27;20655;-76
2023/12/12 07:05:12;;;;;;;;;;;5.60;99.90;;;;;;5098224;27;19941;-76
2023/12/12 07:07:38;;;;;;;;;;;5.70;99.90;;;;;;5090273;27;19931;-75
2023/12/12 07:10:06;;;;;;;;;;;5.60;99.90;;;;;;5106790;27;19927;-75
2023/12/12 07:12:32;;;;;;;;;;;5.70;99.90;;;;;;5106155;27;20502;-75
2023/12/12 07:14:57;;;;;;;;;;;5.70;99.90;;;;;;5095843;27;19923;-76
2023/12/12 07:17:23;;;;;;;;;;;5.70;99.90;;;;;;5125760;27;20303;-75
2023/12/12 07:19:49;;;;;;;;;;;5.60;99.90;;;;;;5110469;27;20293;-75
2023/12/12 07:22:15;;;;;;;;;;;5.70;99.90;;;;;;5109430;27;20391;-75
2023/12/12 07:24:41;;;;;;;;;;;5.70;99.90;;;;;;5098733;27;20468;-75
2023/12/12 07:27:06;;;;;;;;;;;5.70;99.90;;;;;;5107566;27;19927;-76
2023/12/12 07:29:33;;;;;;;;;;;5.70;99.90;;;;;;5093475;27;19927;-76
2023/12/12 07:31:59;;;;;;;;;;;5.60;99.90;;;;;;5111794;27;19931;-76
2023/12/12 07:34:25;;;;;;;;;;;5.60;99.90;;;;;;5108452;27;19981;-75
2023/12/12 07:36:50;;;;;;;;;;;5.60;99.90;;;;;;5115017;27;20389;-75
2023/12/12 07:39:16;;;;;;;;;;;5.80;99.90;;;;;;5079813;27;19953;-75
2023/12/12 07:41:43;;;;;;;;;;;5.50;99.90;;;;;;5093755;27;20488;-76
2023/12/12 07:44:09;;;;;;;;;;;5.50;99.90;;;;;;5111848;27;19934;-75
2023/12/12 07:46:41;;;;;;;;;;;5.40;99.90;;;;;;5109214;27;20484;-75
2023/12/12 07:49:06;;;;;;;;;;;5.30;99.90;;;;;;5112820;27;20420;-75
2023/12/12 07:51:32;;;;;;;;;;;5.20;99.90;;;;;;5095463;27;19995;-75
2023/12/12 07:53:58;;;;;;;;;;;5.20;99.90;;;;;;5105821;27;19974;-75
2023/12/12 07:56:24;;;;;;;;;;;5.60;99.90;;;;;;5100799;27;19919;-75
2023/12/12 07:58:49;;;;;;;;;;;5.10;99.90;;;;;;5099670;27;19972;-75
2023/12/12 08:01:15;;;;;;;;;;;5.10;99.90;;;;;;5105702;27;20337;-75
2023/12/12 08:03:41;;;;;;;;;;;5.00;99.90;;;;;;5093391;27;19923;-75
2023/12/12 08:06:07;;;;;;;;;;;5.00;99.90;;;;;;5099556;27;19931;-75
2023/12/12 08:08:33;;;;;;;;;;;4.90;99.90;;;;;;5106769;27;20270;-75
2023/12/12 08:11:00;;;;;;;;;;;4.90;99.90;;;;;;5109237;27;19992;-76
2023/12/12 08:13:26;;;;;;;;;;;4.80;99.90;;;;;;5108524;27;21535;-75
2023/12/12 08:15:52;;;;;;;;;;;4.80;99.90;;;;;;5107922;27;20072;-74
2023/12/12 08:18:17;;;;;;;;;;;4.70;99.90;;;;;;5105572;27;20383;-75
2023/12/12 08:20:43;;;;;;;;;;;4.60;99.90;;;;;;5107703;27;19938;-76
2023/12/12 08:23:09;;;;;;;;;;;4.60;99.90;;;;;;5106121;27;20385;-75
2023/12/12 08:25:35;;;;;;;;;;;4.50;99.90;;;;;;5107644;27;20465;-76
2023/12/12 08:28:01;;;;;;;;;;;4.50;99.90;;;;;;5105177;27;19955;-76
2023/12/12 08:30:26;;;;;;;;;;;4.50;99.90;;;;;;5090625;27;19919;-77
2023/12/12 08:32:52;;;;;;;;;;;4.50;99.90;;;;;;5103185;27;20443;-75
2023/12/12 08:35:18;;;;;;;;;;;4.40;99.90;;;;;;5111519;27;19927;-76
2023/12/12 08:37:44;;;;;;;;;;;4.40;99.90;;;;;;5112290;27;19963;-75
2023/12/12 08:40:09;;;;;;;;;;;4.40;99.90;;;;;;5127890;27;19927;-76
2023/12/12 08:42:39;;;;;;;;;;;4.40;99.90;;;;;;5110534;27;20011;-75
2023/12/12 08:45:05;;;;;;;;;;;4.40;99.90;;;;;;5096569;27;19920;-75
2023/12/12 08:47:31;;;;;;;;;;;4.50;99.90;;;;;;5099591;27;19984;-76
2023/12/12 08:49:56;;;;;;;;;;;4.50;99.90;;;;;;5100249;27;20320;-76
2023/12/12 08:52:22;;;;;;;;;;;4.60;99.90;;;;;;5099217;27;19930;-76
2023/12/12 08:54:48;;;;;;;;;;;4.60;99.90;;;;;;5111063;27;20199;-76
2023/12/12 08:57:17;;;;;;;;;;;4.50;99.90;;;;;;5107280;27;19931;-77
2023/12/12 08:59:43;;;;;;;;;;;4.50;99.90;;;;;;5091877;27;20476;-76
2023/12/12 09:02:09;;;;;;;;;;;4.50;99.90;;;;;;5112302;27;19927;-76
2023/12/12 09:04:36;;;;;;;;;;;4.50;99.90;;;;;;5105489;27;19934;-77
2023/12/12 09:07:02;;;;;;;;;;;4.60;99.90;;;;;;5104768;27;19924;-77
2023/12/12 09:09:27;;;;;;;;;;;4.50;99.90;;;;;;5101383;27;19927;-76
2023/12/12 09:11:54;;;;;;;;;;;4.50;99.90;;;;;;5088433;27;20471;-77
2023/12/12 09:14:19;;;;;;;;;;;4.50;99.90;;;;;;5106119;27;19933;-77
2023/12/12 09:16:45;;;;;;;;;;;4.50;99.90;;;;;;5109770;27;19931;-77
2023/12/12 09:19:14;;;;;;;;;;;4.50;99.90;;;;;;5092008;27;19976;-76
2023/12/12 09:21:40;;;;;;;;;;;4.50;99.90;;;;;;5095101;27;20279;-76
2023/12/12 09:24:06;;;;;;;;;;;4.50;99.90;;;;;;5109010;27;20009;-77
2023/12/12 09:26:32;;;;;;;;;;;4.50;99.90;;;;;;5109662;27;20067;-76
2023/12/12 09:28:57;;;;;;;;;;;4.50;99.90;;;;;;5104823;27;19927;-77
2023/12/12 09:31:26;;;;;;;;;;;4.60;99.90;;;;;;5089880;27;19969;-76
2023/12/12 09:33:52;;;;;;;;;;;4.60;99.90;;;;;;5107331;27;20429;-76
2023/12/12 09:36:18;;;;;;;;;;;4.60;99.90;;;;;;5093762;27;19927;-77
2023/12/12 09:38:44;;;;;;;;;;;4.70;99.90;;;;;;5107500;27;19943;-77
2023/12/12 09:41:16;;;;;;;;;;;4.70;99.90;;;;;;5103244;27;20365;-76
2023/12/12 09:43:43;;;;;;;;;;;4.70;99.90;;;;;;5106908;27;19989;-76
2023/12/12 09:46:09;;;;;;;;;;;4.70;99.90;;;;;;5104719;27;19976;-77
2023/12/12 09:48:35;;;;;;;;;;;4.80;99.90;;;;;;5070860;27;20592;-77
2023/12/12 09:51:03;;;;;;;;;;;4.80;99.90;;;;;;5096840;27;19919;-76
2023/12/12 09:53:30;;;;;;;;;;;4.80;99.90;;;;;;5120162;27;19962;-77
2023/12/12 09:55:58;;;;;;;;;;;4.90;99.90;;;;;;5094119;27;19934;-76
2023/12/12 09:58:24;;;;;;;;;;;4.90;99.90;;;;;;5088895;27;19927;-77
2023/12/12 10:00:50;;;;;;;;;;;5.00;99.90;;;;;;5091206;27;19927;-77
2023/12/12 10:03:17;;;;;;;;;;;5.00;99.90;;;;;;5096264;27;19927;-77
2023/12/12 10:05:48;;;;;;;;;;;5.20;99.90;;;;;;5107928;27;19931;-77
2023/12/12 10:08:14;;;;;;;;;;;5.30;99.90;;;;;;5105725;27;20000;-77
2023/12/12 10:10:41;;;;;;;;;;;5.30;99.90;;;;;;5108662;27;19927;-77
2023/12/12 10:13:06;;;;;;;;;;;5.30;99.90;;;;;;5104260;27;19931;-76
2023/12/12 10:15:33;;;;;;;;;;;4.30;99.90;;;;;;5106957;27;19984;-76
2023/12/12 10:17:59;;;;;;;;;;;5.30;99.90;;;;;;5103400;27;19950;-76
2023/12/12 10:20:31;;;;;;;;;;;5.30;99.90;;;;;;5100456;27;19935;-77
2023/12/12 10:22:57;;;;;;;;;;;5.30;99.90;;;;;;5101068;27;21636;-76
2023/12/12 10:25:23;;;;;;;;;;;5.20;99.90;;;;;;5106763;27;20052;-76
2023/12/12 10:27:52;;;;;;;;;;;5.20;99.90;;;;;;5107328;27;20379;-76
2023/12/12 10:30:18;;;;;;;;;;;5.30;99.90;;;;;;5104833;27;19919;-76
2023/12/12 10:32:51;;;;;;;;;;;5.30;99.90;;;;;;5102432;27;20006;-76
2023/12/12 10:35:22;;;;;;;;;;;5.30;99.90;;;;;;5104131;27;19927;-77
2023/12/12 10:37:48;;;;;;;;;;;5.40;99.90;;;;;;5104669;27;20399;-75
2023/12/12 10:40:17;;;;;;;;;;;5.40;99.90;;;;;;5104890;27;20026;-77
2023/12/12 10:42:43;;;;;;;;;;;5.50;99.90;;;;;;5077722;27;19927;-76
2023/12/12 10:45:14;;;;;;;;;;;5.60;99.90;;;;;;5103505;27;19927;-76
2023/12/12 10:47:50;;;;;;;;;;;5.60;99.90;;;;;;5120267;27;19935;-76
2023/12/12 10:50:17;;;;;;;;;;;5.60;99.90;;;;;;5109310;27;20374;-76
2023/12/12 10:52:44;;;;;;;;;;;5.70;99.90;;;;;;5102759;27;19934;-77
2023/12/12 10:55:14;;;;;;;;;;;5.70;99.90;;;;;;5101406;27;19987;-76
2023/12/12 10:57:43;;;;;;;;;;;5.80;99.90;;;;;;5087808;27;20285;-76
2023/12/12 11:00:13;;;;;;;;;;;5.90;99.90;;;;;;5106766;27;20285;-76
2023/12/12 11:02:40;;;;;;;;;;;4.80;99.90;;;;;;5107261;27;19927;-76
2023/12/12 11:05:12;;;;;;;;;;;6.00;99.90;;;;;;5109173;27;19930;-76
2023/12/12 11:07:39;;;;;;;;;;;6.00;99.90;;;;;;5098794;27;20307;-77
2023/12/12 11:10:11;;;;;;;;;;;6.10;99.90;;;;;;5087998;27;20006;-76
2023/12/12 11:12:40;;;;;;;;;;;6.10;99.90;;;;;;5106393;27;19972;-76
2023/12/12 11:15:07;;;;;;;;;;;6.20;99.90;;;;;;5105670;27;20602;-76
2023/12/12 11:17:32;;;;;;;;;;;5.90;99.90;;;;;;5101420;27;19939;-77
2023/12/12 11:20:04;;;;;;;;;;;6.40;99.90;;;;;;5111239;27;20414;-76
2023/12/12 11:22:40;;;;;;;;;;;6.40;99.90;;;;;;5110404;27;19931;-77
2023/12/12 11:25:08;;;;;;;;;;;6.50;99.90;;;;;;5107321;27;19962;-76
2023/12/12 11:27:54;;;;;;;;;;;6.50;99.90;;;;;;5093039;27;19923;-76
2023/12/12 11:30:28;;;;;;;;;;;6.60;99.90;;;;;;5109705;27;19927;-77
2023/12/12 11:32:54;;;;;;;;;;;6.60;99.90;;;;;;5112763;27;19928;-76
2023/12/12 11:35:30;;;;;;;;;;;6.60;99.90;;;;;;5109575;27;19931;-77
2023/12/12 11:38:00;;;;;;;;;;;6.70;99.90;;;;;;5110022;27;19927;-76
2023/12/12 11:40:27;;;;;;;;;;;6.70;99.90;;;;;;5109171;27;20444;-77
2023/12/12 11:42:55;;;;;;;;;;;6.80;99.90;;;;;;5095567;27;19953;-77
2023/12/12 11:45:31;;;;;;;;;;;6.80;99.90;;;;;;5110097;27;19927;-77
2023/12/12 11:47:58;;;;;;;;;;;6.90;99.90;;;;;;5110325;27;19927;-77
2023/12/12 11:50:24;;;;;;;;;;;6.90;99.90;;;;;;5107130;27;20265;-76
2023/12/12 11:52:50;;;;;;;;;;;6.90;99.90;;;;;;5109889;27;20018;-77
2023/12/12 11:55:28;;;;;;;;;;;6.90;99.90;;;;;;5105767;27;19930;-77
2023/12/12 11:58:01;;;;;;;;;;;7.00;99.90;;;;;;5102265;27;19933;-76
2023/12/12 12:00:30;;;;;;;;;;;7.00;99.90;;;;;;5112805;27;19974;-77
2023/12/12 12:02:55;;;;;;;;;;;7.00;99.90;;;;;;5093265;27;19936;-76
2023/12/12 12:05:21;;;;;;;;;;;7.10;99.90;;;;;;5126112;27;19927;-76
2023/12/12 12:07:47;;;;;;;;;;;7.00;99.90;;;;;;5090925;27;19927;-77
2023/12/12 12:10:13;;;;;;;;;;;7.10;99.90;;;;;;5100127;27;19931;-77
2023/12/12 12:12:39;;;;;;;;;;;7.00;99.90;;;;;;5096523;27;20370;-77
2023/12/12 12:15:11;;;;;;;;;;;7.10;99.90;;;;;;5114087;27;20266;-77
2023/12/12 12:17:37;;;;;;;;;;;7.10;99.90;;;;;;5099110;27;19920;-77
2023/12/12 12:20:03;;;;;;;;;;;7.10;99.90;;;;;;5111028;27;19927;-77
2023/12/12 12:22:29;;;;;;;;;;;7.10;99.90;;;;;;5106529;27;20775;-77
2023/12/12 12:24:54;;;;;;;;;;;7.20;99.90;;;;;;5106182;27;19923;-77
2023/12/12 12:27:20;;;;;;;;;;;7.20;99.90;;;;;;5091352;27;20301;-77
2023/12/12 12:30:03;;;;;;;;;;;7.10;99.90;;;;;;5092598;27;20282;-77
2023/12/12 12:32:37;;;;;;;;;;;7.20;99.90;;;;;;5124496;27;20381;-77
2023/12/12 12:35:09;;;;;;;;;;;7.10;99.90;;;;;;5101562;27;19931;-77
2023/12/12 12:37:36;;;;;;;;;;;7.20;99.90;;;;;;5109523;27;19952;-78
2023/12/12 12:40:05;;;;;;;;;;;7.20;99.90;;;;;;5102910;27;19998;-77
2023/12/12 12:42:33;;;;;;;;;;;7.20;99.90;;;;;;5094921;27;19927;-77
2023/12/12 12:44:58;;;;;;;;;;;7.20;99.90;;;;;;5119876;27;20297;-76
2023/12/12 12:47:24;;;;;;;;;;;7.20;99.90;;;;;;5086922;27;19928;-76
2023/12/12 12:49:50;;;;;;;;;;;7.20;99.90;;;;;;5104669;27;19992;-77
2023/12/12 12:52:15;;;;;;;;;;;7.20;99.90;;;;;;5100559;27;19939;-77
2023/12/12 12:54:41;;;;;;;;;;;7.20;99.90;;;;;;5093316;27;19930;-77
2023/12/12 12:57:11;;;;;;;;;;;7.20;99.90;;;;;;5088795;27;19986;-77
2023/12/12 12:59:36;;;;;;;;;;;7.20;99.90;;;;;;5102629;27;20021;-77
2023/12/12 13:02:02;;;;;;;;;;;7.30;99.90;;;;;;5088324;27;19920;-77
2023/12/12 13:04:29;;;;;;;;;;;7.20;99.90;;;;;;5125985;27;19927;-77
2023/12/12 13:06:56;;;;;;;;;;;7.20;99.90;;;;;;5087811;27;19938;-77
2023/12/12 13:09:23;;;;;;;;;;;7.20;99.90;;;;;;5105471;27;19932;-77
2023/12/12 13:11:50;;;;;;;;;;;7.20;99.90;;;;;;5124210;27;19932;-76
2023/12/12 13:14:17;;;;;;;;;;;7.20;99.90;;;;;;5110019;27;20031;-77
2023/12/12 13:16:43;;;;;;;;;;;7.30;99.90;;;;;;5109150;27;19923;-77
2023/12/12 13:19:10;;;;;;;;;;;7.30;99.90;;;;;;5097890;27;19923;-77
2023/12/12 13:21:35;;;;;;;;;;;7.30;99.90;;;;;;5088534;27;20018;-77
2023/12/12 13:24:01;;;;;;;;;;;7.30;99.90;;;;;;5093046;27;20889;-77
2023/12/12 13:26:27;;;;;;;;;;;7.20;99.90;;;;;;5110212;27;19924;-76
2023/12/12 13:28:52;;;;;;;;;;;7.20;99.90;;;;;;5109387;27;20773;-77
2023/12/12 13:31:20;;;;;;;;;;;7.20;99.90;;;;;;5109553;27;19923;-77
2023/12/12 13:33:46;;;;;;;;;;;7.20;99.90;;;;;;5098842;27;19935;-77
2023/12/12 13:36:12;;;;;;;;;;;7.20;99.90;;;;;;5111419;27;19927;-77
2023/12/12 13:38:38;;;;;;;;;;;7.20;99.90;;;;;;5113452;27;20280;-77
2023/12/12 13:41:03;;;;;;;;;;;7.20;99.90;;;;;;5097910;27;20704;-77
2023/12/12 13:43:29;;;;;;;;;;;7.20;99.90;;;;;;5100030;27;20063;-77
2023/12/12 13:45:55;;;;;;;;;;;7.10;99.90;;;;;;5091001;27;19986;-77
2023/12/12 13:48:20;;;;;;;;;;;7.10;99.90;;;;;;5106069;27;20659;-77
2023/12/12 13:50:46;;;;;;;;;;;7.10;99.90;;;;;;5107043;27;20380;-77
2023/12/12 13:53:12;;;;;;;;;;;7.10;99.90;;;;;;5112782;27;20292;-76
2023/12/12 13:55:37;;;;;;;;;;;7.10;99.90;;;;;;5094979;27;19970;-76
2023/12/12 13:58:03;;;;;;;;;;;7.10;99.90;;;;;;5103512;27;19980;-77
2023/12/12 14:00:29;;;;;;;;;;;7.00;99.90;;;;;;5102087;27;19930;-77
2023/12/12 14:02:54;;;;;;;;;;;7.00;99.90;;;;;;5105039;27;20334;-76
2023/12/12 14:05:20;;;;;;;;;;;7.00;99.90;;;;;;5102847;27;20048;-77
2023/12/12 14:07:46;;;;;;;;;;;7.00;99.90;;;;;;5084562;27;19932;-77
2023/12/12 14:10:13;;;;;;;;;;;7.90;99.90;;;;;;5107765;27;19923;-76
2023/12/12 14:12:38;;;;;;;;;;;7.00;99.90;;;;;;5077373;27;20010;-76
2023/12/12 14:15:04;;;;;;;;;;;7.10;99.90;;;;;;5089545;27;19934;-76
2023/12/12 14:17:30;;;;;;;;;;;7.10;99.90;;;;;;5105767;27;20658;-77
2023/12/12 14:19:56;;;;;;;;;;;7.10;99.90;;;;;;5105364;27;20163;-77
2023/12/12 14:22:21;;;;;;;;;;;7.10;99.90;;;;;;5085758;27;20018;-76
2023/12/12 14:24:49;;;;;;;;;;;7.10;99.90;;;;;;5103635;27;20346;-77
2023/12/12 14:27:15;;;;;;;;;;;7.10;99.90;;;;;;5099353;27;20540;-77